Terminal Aerodrome Forecast
Issued by NWS

Home | Current Version | Previous Version | Text Only | Print | Product List | Glossary On
Versions: 1 2 3 4 5 6 7 8 9 10 11 12 13 14 15 16 17 18 19 20 21
000
FTPA31 PHFO 280500
TAFKOA
TAF
PHKO 280522Z 2806/0106 06007KT P6SM SCT050 SCT090
     FM281500 36004KT P6SM SCT050 SCT200
     FM282100 30010KT P6SM VCSH SCT050 BKN200=

USA.gov is the U.S. government's official web portal to all federal, state and local government web resources and services.